Fernhill Heath, United Kingdom
Current Conditions -  °F | °C
As of 4:20 PM on Friday 24 Oct 2014 (Local Time) from EGBJ Reporting Station
Rain Showers Rain Showers  
Wind Chill: 59°   Ceiling: Unl
Heat Index: 59°   Visibility: 6mi
Dew Point: 59°   Wind: 8mph
Humidity: 100%   Direction: 220°SW
Pressure: 29.88"   Gusts: NA
Location:  52.23°N, 2.2°W
Report Text: EGBJ 241520Z 22007KT 190V250 9999 5000E VCSH SCT006 SCT012 15/15 Q1012
Loading
Personal Weather Stations






























Interactive Weather Map
Tropical Storm Tracking
New forecast layout! Learn more

10-Day Weather Forecast

Advertisements
Track Severe Weather on mobile